sensor_id;sensor_type;location;lat;lon;timestamp;pressure;altitude;pressure_sealevel;temperature;humidity
250;BME280;109;19.806;-70.704;2023-07-09T00:01:43;101495.94;;;29.34;58.52
250;BME280;109;19.806;-70.704;2023-07-09T00:04:11;101508.59;;;29.47;58.33
250;BME280;109;19.806;-70.704;2023-07-09T00:06:39;101497.19;;;29.42;58.28
250;BME280;109;19.806;-70.704;2023-07-09T00:09:09;101495.81;;;29.51;57.57
250;BME280;109;19.806;-70.704;2023-07-09T00:11:36;101497.31;;;29.69;58.21
250;BME280;109;19.806;-70.704;2023-07-09T00:14:05;101504.72;;;29.65;58.10
250;BME280;109;19.806;-70.704;2023-07-09T00:16:31;101498.78;;;29.60;58.26
250;BME280;109;19.806;-70.704;2023-07-09T00:18:58;101500.22;;;29.52;58.58
250;BME280;109;19.806;-70.704;2023-07-09T00:21:24;101503.31;;;29.46;58.15
250;BME280;109;19.806;-70.704;2023-07-09T00:23:51;101504.31;;;29.43;58.16
250;BME280;109;19.806;-70.704;2023-07-09T00:26:18;101507.09;;;29.42;58.18
250;BME280;109;19.806;-70.704;2023-07-09T00:28:49;101509.25;;;29.37;58.00
250;BME280;109;19.806;-70.704;2023-07-09T00:31:16;101509.38;;;29.63;57.96
250;BME280;109;19.806;-70.704;2023-07-09T00:33:43;101516.69;;;29.61;58.48
250;BME280;109;19.806;-70.704;2023-07-09T00:36:20;101506.00;;;29.60;58.50
250;BME280;109;19.806;-70.704;2023-07-09T00:38:49;101515.44;;;29.53;58.36
250;BME280;109;19.806;-70.704;2023-07-09T00:41:19;101522.38;;;29.57;58.63
250;BME280;109;19.806;-70.704;2023-07-09T00:47:31;101525.84;;;29.59;58.37
250;BME280;109;19.806;-70.704;2023-07-09T00:50:34;101535.72;;;29.44;58.58
250;BME280;109;19.806;-70.704;2023-07-09T05:32:21;101585.19;;;29.29;55.36
250;BME280;109;19.806;-70.704;2023-07-09T05:35:08;101582.19;;;29.19;55.34
250;BME280;109;19.806;-70.704;2023-07-09T05:37:55;101594.81;;;29.19;55.19
250;BME280;109;19.806;-70.704;2023-07-09T05:40:42;101589.16;;;29.23;55.25
250;BME280;109;19.806;-70.704;2023-07-09T05:43:29;101582.38;;;29.16;55.12
250;BME280;109;19.806;-70.704;2023-07-09T05:46:15;101579.28;;;29.08;54.80
250;BME280;109;19.806;-70.704;2023-07-09T05:51:26;101565.72;;;29.10;54.32
250;BME280;109;19.806;-70.704;2023-07-09T05:54:12;101563.59;;;29.15;54.11
250;BME280;109;19.806;-70.704;2023-07-09T05:56:58;101560.88;;;29.15;54.06
250;BME280;109;19.806;-70.704;2023-07-09T05:59:44;101562.38;;;29.20;53.89
250;BME280;109;19.806;-70.704;2023-07-09T06:02:30;101557.75;;;29.22;53.75
250;BME280;109;19.806;-70.704;2023-07-09T06:05:17;101559.66;;;29.20;53.89
250;BME280;109;19.806;-70.704;2023-07-09T06:08:03;101553.09;;;29.10;53.97
250;BME280;109;19.806;-70.704;2023-07-09T06:10:59;101552.50;;;29.05;53.95
250;BME280;109;19.806;-70.704;2023-07-09T06:13:46;101550.50;;;29.09;53.94
250;BME280;109;19.806;-70.704;2023-07-09T06:16:32;101560.50;;;29.07;53.93
250;BME280;109;19.806;-70.704;2023-07-09T06:19:19;101553.59;;;29.17;54.01
250;BME280;109;19.806;-70.704;2023-07-09T06:22:05;101548.44;;;28.98;53.97
250;BME280;109;19.806;-70.704;2023-07-09T06:24:45;101544.59;;;29.02;54.36
250;BME280;109;19.806;-70.704;2023-07-09T06:27:31;101548.53;;;28.97;54.28
250;BME280;109;19.806;-70.704;2023-07-09T06:30:18;101542.75;;;28.87;54.28
250;BME280;109;19.806;-70.704;2023-07-09T10:48:02;101599.03;;;28.46;53.53
250;BME280;109;19.806;-70.704;2023-07-09T10:50:34;101593.03;;;28.41;53.92
250;BME280;109;19.806;-70.704;2023-07-09T10:53:28;101592.22;;;28.23;54.41
250;BME280;109;19.806;-70.704;2023-07-09T10:56:17;101599.19;;;28.27;53.95
250;BME280;109;19.806;-70.704;2023-07-09T10:59:11;101602.22;;;28.37;53.84
250;BME280;109;19.806;-70.704;2023-07-09T11:01:43;101594.69;;;28.43;53.80
250;BME280;109;19.806;-70.704;2023-07-09T11:04:35;101600.34;;;28.70;53.60
250;BME280;109;19.806;-70.704;2023-07-09T11:07:09;101591.09;;;28.90;53.41
250;BME280;109;19.806;-70.704;2023-07-09T11:09:43;101585.44;;;29.10;52.83
250;BME280;109;19.806;-70.704;2023-07-09T11:12:33;101593.16;;;29.16;52.74
250;BME280;109;19.806;-70.704;2023-07-09T11:15:15;101599.84;;;29.39;52.65
250;BME280;109;19.806;-70.704;2023-07-09T11:17:45;101595.72;;;29.63;52.52
250;BME280;109;19.806;-70.704;2023-07-09T11:20:28;101590.69;;;29.72;52.61
250;BME280;109;19.806;-70.704;2023-07-09T11:23:07;101597.41;;;29.64;52.94
250;BME280;109;19.806;-70.704;2023-07-09T11:25:45;101588.00;;;29.86;52.87
250;BME280;109;19.806;-70.704;2023-07-09T11:28:12;101592.34;;;29.74;53.22
250;BME280;109;19.806;-70.704;2023-07-09T11:30:53;101595.88;;;29.46;53.91
250;BME280;109;19.806;-70.704;2023-07-09T11:33:27;101597.91;;;29.27;54.04
250;BME280;109;19.806;-70.704;2023-07-09T11:36:13;101611.06;;;29.17;54.20
250;BME280;109;19.806;-70.704;2023-07-09T11:38:46;101607.66;;;29.14;54.20
250;BME280;109;19.806;-70.704;2023-07-09T11:44:04;101597.44;;;29.35;53.95
250;BME280;109;19.806;-70.704;2023-07-09T11:46:32;101605.25;;;29.69;53.65
250;BME280;109;19.806;-70.704;2023-07-09T11:49:01;101599.19;;;29.94;53.32
250;BME280;109;19.806;-70.704;2023-07-09T11:51:40;101589.84;;;30.28;52.82
250;BME280;109;19.806;-70.704;2023-07-09T11:54:11;101597.34;;;30.37;52.21
250;BME280;109;19.806;-70.704;2023-07-09T11:56:42;101590.13;;;30.52;51.85
250;BME280;109;19.806;-70.704;2023-07-09T11:59:11;101579.56;;;30.61;51.61
250;BME280;109;19.806;-70.704;2023-07-09T12:01:43;101577.34;;;30.68;50.96
250;BME280;109;19.806;-70.704;2023-07-09T12:04:15;101577.81;;;30.87;50.81
250;BME280;109;19.806;-70.704;2023-07-09T12:06:43;101575.84;;;31.03;51.03
250;BME280;109;19.806;-70.704;2023-07-09T12:09:16;101583.63;;;31.08;51.17
250;BME280;109;19.806;-70.704;2023-07-09T12:11:45;101580.28;;;31.04;51.07
250;BME280;109;19.806;-70.704;2023-07-09T12:14:15;101583.28;;;31.39;50.71
250;BME280;109;19.806;-70.704;2023-07-09T12:16:44;101593.81;;;31.57;49.95
250;BME280;109;19.806;-70.704;2023-07-09T12:19:20;101591.34;;;31.27;49.66
250;BME280;109;19.806;-70.704;2023-07-09T12:21:51;101585.59;;;31.06;49.77
250;BME280;109;19.806;-70.704;2023-07-09T12:24:22;101587.50;;;30.91;50.65
250;BME280;109;19.806;-70.704;2023-07-09T12:26:53;101583.41;;;30.84;51.59
250;BME280;109;19.806;-70.704;2023-07-09T12:29:20;101591.13;;;30.63;51.22
250;BME280;109;19.806;-70.704;2023-07-09T12:31:50;101583.47;;;30.70;50.81
250;BME280;109;19.806;-70.704;2023-07-09T12:34:16;101590.38;;;30.61;51.41
250;BME280;109;19.806;-70.704;2023-07-09T12:36:48;101582.59;;;30.43;52.33
250;BME280;109;19.806;-70.704;2023-07-09T12:39:20;101598.13;;;30.25;52.52
250;BME280;109;19.806;-70.704;2023-07-09T12:41:49;101594.16;;;30.45;52.41
250;BME280;109;19.806;-70.704;2023-07-09T12:44:21;101585.97;;;30.46;51.77
250;BME280;109;19.806;-70.704;2023-07-09T12:46:49;101601.69;;;30.40;51.75
250;BME280;109;19.806;-70.704;2023-07-09T12:49:38;101604.38;;;30.40;51.81
250;BME280;109;19.806;-70.704;2023-07-09T12:52:21;101610.28;;;30.46;52.05
250;BME280;109;19.806;-70.704;2023-07-09T12:55:19;101603.38;;;30.42;52.32
250;BME280;109;19.806;-70.704;2023-07-09T12:57:46;101599.41;;;30.75;51.43
250;BME280;109;19.806;-70.704;2023-07-09T13:00:17;101592.91;;;30.91;51.63
250;BME280;109;19.806;-70.704;2023-07-09T13:02:43;101603.84;;;31.02;51.54
250;BME280;109;19.806;-70.704;2023-07-09T13:05:19;101596.72;;;31.01;51.25
250;BME280;109;19.806;-70.704;2023-07-09T13:07:59;101604.84;;;30.87;51.67
250;BME280;109;19.806;-70.704;2023-07-09T13:10:40;101608.13;;;31.19;50.98
250;BME280;109;19.806;-70.704;2023-07-09T13:13:12;101605.06;;;31.11;51.55
250;BME280;109;19.806;-70.704;2023-07-09T13:15:44;101602.69;;;31.46;51.15
250;BME280;109;19.806;-70.704;2023-07-09T13:18:15;101609.81;;;31.72;50.85
250;BME280;109;19.806;-70.704;2023-07-09T13:20:44;101606.47;;;31.82;50.68
250;BME280;109;19.806;-70.704;2023-07-09T13:23:23;101598.81;;;31.88;49.99
250;BME280;109;19.806;-70.704;2023-07-09T13:25:50;101600.53;;;32.02;49.99
250;BME280;109;19.806;-70.704;2023-07-09T13:28:29;101591.44;;;32.03;50.04
250;BME280;109;19.806;-70.704;2023-07-09T13:31:08;101595.53;;;32.08;50.80
250;BME280;109;19.806;-70.704;2023-07-09T13:33:37;101598.34;;;32.32;50.40
250;BME280;109;19.806;-70.704;2023-07-09T13:36:04;101597.31;;;32.46;49.68
250;BME280;109;19.806;-70.704;2023-07-09T13:38:33;101598.69;;;32.52;49.56
250;BME280;109;19.806;-70.704;2023-07-09T13:41:01;101588.09;;;32.49;49.75
250;BME280;109;19.806;-70.704;2023-07-09T13:43:36;101587.63;;;32.55;49.81
250;BME280;109;19.806;-70.704;2023-07-09T13:46:06;101595.38;;;32.48;49.88
250;BME280;109;19.806;-70.704;2023-07-09T13:48:34;101602.38;;;32.51;49.92
250;BME280;109;19.806;-70.704;2023-07-09T13:51:03;101604.06;;;32.64;49.49
250;BME280;109;19.806;-70.704;2023-07-09T13:53:32;101607.00;;;32.74;49.72
250;BME280;109;19.806;-70.704;2023-07-09T13:55:59;101601.97;;;32.80;49.61
250;BME280;109;19.806;-70.704;2023-07-09T13:58:27;101604.94;;;32.65;50.14
250;BME280;109;19.806;-70.704;2023-07-09T14:01:10;101619.06;;;32.57;49.88
250;BME280;109;19.806;-70.704;2023-07-09T14:03:37;101611.22;;;32.65;50.39
250;BME280;109;19.806;-70.704;2023-07-09T14:06:04;101609.25;;;32.67;50.71
250;BME280;109;19.806;-70.704;2023-07-09T14:08:31;101604.84;;;32.90;50.66
250;BME280;109;19.806;-70.704;2023-07-09T14:10:59;101601.88;;;32.69;50.97
250;BME280;109;19.806;-70.704;2023-07-09T14:13:25;101594.69;;;32.57;51.18
250;BME280;109;19.806;-70.704;2023-07-09T14:15:52;101589.47;;;32.54;50.90
250;BME280;109;19.806;-70.704;2023-07-09T14:18:21;101585.56;;;32.58;52.05
250;BME280;109;19.806;-70.704;2023-07-09T14:20:49;101585.63;;;32.93;50.93
250;BME280;109;19.806;-70.704;2023-07-09T14:23:17;101585.63;;;32.69;51.11
250;BME280;109;19.806;-70.704;2023-07-09T14:25:44;101580.91;;;32.60;51.36
250;BME280;109;19.806;-70.704;2023-07-09T14:28:13;101587.13;;;32.50;51.45
250;BME280;109;19.806;-70.704;2023-07-09T14:30:40;101593.06;;;32.05;52.40
250;BME280;109;19.806;-70.704;2023-07-09T14:33:13;101599.00;;;31.72;53.24
250;BME280;109;19.806;-70.704;2023-07-09T14:35:40;101600.13;;;31.83;52.82
250;BME280;109;19.806;-70.704;2023-07-09T14:38:25;101605.44;;;31.84;52.98
250;BME280;109;19.806;-70.704;2023-07-09T14:40:55;101608.09;;;31.71;53.16
250;BME280;109;19.806;-70.704;2023-07-09T14:43:22;101602.47;;;31.74;53.49
250;BME280;109;19.806;-70.704;2023-07-09T14:45:49;101607.56;;;31.66;53.43
250;BME280;109;19.806;-70.704;2023-07-09T14:48:18;101605.84;;;31.26;54.16
250;BME280;109;19.806;-70.704;2023-07-09T14:50:46;101609.28;;;31.42;54.39
250;BME280;109;19.806;-70.704;2023-07-09T14:53:25;101607.03;;;31.34;54.39
250;BME280;109;19.806;-70.704;2023-07-09T14:55:53;101605.53;;;31.30;54.99
250;BME280;109;19.806;-70.704;2023-07-09T14:58:22;101613.41;;;31.21;55.73
250;BME280;109;19.806;-70.704;2023-07-09T15:00:50;101606.03;;;31.10;55.37
250;BME280;109;19.806;-70.704;2023-07-09T15:03:20;101607.00;;;31.09;55.69
250;BME280;109;19.806;-70.704;2023-07-09T15:05:48;101601.03;;;30.77;55.77
250;BME280;109;19.806;-70.704;2023-07-09T15:08:18;101606.22;;;30.53;56.77
250;BME280;109;19.806;-70.704;2023-07-09T15:10:46;101603.09;;;30.59;56.98
250;BME280;109;19.806;-70.704;2023-07-09T15:13:29;101604.75;;;30.89;56.29
250;BME280;109;19.806;-70.704;2023-07-09T15:15:58;101598.00;;;31.09;55.93
250;BME280;109;19.806;-70.704;2023-07-09T15:18:25;101604.31;;;31.22;54.92
250;BME280;109;19.806;-70.704;2023-07-09T15:20:59;101604.69;;;31.30;54.92
250;BME280;109;19.806;-70.704;2023-07-09T15:23:27;101611.06;;;31.29;55.06
250;BME280;109;19.806;-70.704;2023-07-09T15:25:55;101613.44;;;31.33;54.71
250;BME280;109;19.806;-70.704;2023-07-09T15:28:22;101606.50;;;31.29;54.69
250;BME280;109;19.806;-70.704;2023-07-09T15:30:48;101596.13;;;31.36;55.09
250;BME280;109;19.806;-70.704;2023-07-09T15:33:18;101594.88;;;31.42;55.46
250;BME280;109;19.806;-70.704;2023-07-09T15:35:46;101595.53;;;31.45;54.88
250;BME280;109;19.806;-70.704;2023-07-09T15:38:26;101591.09;;;31.44;54.56
250;BME280;109;19.806;-70.704;2023-07-09T15:40:55;101590.06;;;31.20;54.68
250;BME280;109;19.806;-70.704;2023-07-09T15:43:22;101578.50;;;31.30;54.81
250;BME280;109;19.806;-70.704;2023-07-09T15:45:51;101583.81;;;31.32;55.19
250;BME280;109;19.806;-70.704;2023-07-09T15:48:23;101580.69;;;31.51;54.66
250;BME280;109;19.806;-70.704;2023-07-09T15:50:51;101588.81;;;31.38;54.68
250;BME280;109;19.806;-70.704;2023-07-09T15:53:19;101592.03;;;31.30;54.63
250;BME280;109;19.806;-70.704;2023-07-09T15:55:46;101588.25;;;31.33;54.22
250;BME280;109;19.806;-70.704;2023-07-09T15:58:21;101594.38;;;31.22;55.10
250;BME280;109;19.806;-70.704;2023-07-09T16:00:50;101591.44;;;31.13;54.98
250;BME280;109;19.806;-70.704;2023-07-09T16:03:16;101595.50;;;31.32;55.18
250;BME280;109;19.806;-70.704;2023-07-09T16:05:43;101587.94;;;31.50;54.72
250;BME280;109;19.806;-70.704;2023-07-09T16:08:11;101589.38;;;31.68;54.26
250;BME280;109;19.806;-70.704;2023-07-09T16:10:38;101594.88;;;31.80;54.14
250;BME280;109;19.806;-70.704;2023-07-09T16:13:15;101601.00;;;31.83;54.21
250;BME280;109;19.806;-70.704;2023-07-09T16:15:43;101604.88;;;31.92;54.07
250;BME280;109;19.806;-70.704;2023-07-09T16:18:10;101604.47;;;31.85;54.92
250;BME280;109;19.806;-70.704;2023-07-09T16:20:37;101595.09;;;31.76;54.05
250;BME280;109;19.806;-70.704;2023-07-09T16:23:04;101589.38;;;31.68;54.39
250;BME280;109;19.806;-70.704;2023-07-09T16:25:35;101597.91;;;31.62;53.81
250;BME280;109;19.806;-70.704;2023-07-09T16:28:02;101598.88;;;31.74;54.40
250;BME280;109;19.806;-70.704;2023-07-09T16:30:30;101591.91;;;31.84;54.06
250;BME280;109;19.806;-70.704;2023-07-09T16:32:58;101582.78;;;31.98;53.88
250;BME280;109;19.806;-70.704;2023-07-09T16:35:28;101580.94;;;32.11;53.95
250;BME280;109;19.806;-70.704;2023-07-09T16:37:55;101576.44;;;32.23;53.73
250;BME280;109;19.806;-70.704;2023-07-09T16:40:26;101570.78;;;32.38;53.26
250;BME280;109;19.806;-70.704;2023-07-09T16:42:53;101579.72;;;32.52;53.03
250;BME280;109;19.806;-70.704;2023-07-09T16:45:23;101575.81;;;32.56;53.68
250;BME280;109;19.806;-70.704;2023-07-09T16:47:50;101578.78;;;32.76;52.42
250;BME280;109;19.806;-70.704;2023-07-09T16:50:20;101576.56;;;32.58;52.82
250;BME280;109;19.806;-70.704;2023-07-09T16:52:48;101575.44;;;32.73;52.94
250;BME280;109;19.806;-70.704;2023-07-09T16:55:21;101571.38;;;33.02;52.63
250;BME280;109;19.806;-70.704;2023-07-09T16:57:51;101567.25;;;32.86;52.73
250;BME280;109;19.806;-70.704;2023-07-09T17:00:31;101568.78;;;33.25;52.39
250;BME280;109;19.806;-70.704;2023-07-09T17:03:04;101562.22;;;33.62;51.00
250;BME280;109;19.806;-70.704;2023-07-09T17:05:31;101558.41;;;33.76;50.41
250;BME280;109;19.806;-70.704;2023-07-09T17:07:58;101539.50;;;33.63;50.35
250;BME280;109;19.806;-70.704;2023-07-09T17:10:25;101530.72;;;33.82;50.82
250;BME280;109;19.806;-70.704;2023-07-09T17:12:56;101531.97;;;33.89;50.34
250;BME280;109;19.806;-70.704;2023-07-09T17:15:26;101524.28;;;33.61;50.84
250;BME280;109;19.806;-70.704;2023-07-09T17:17:54;101512.56;;;33.38;52.08
250;BME280;109;19.806;-70.704;2023-07-09T17:20:22;101512.66;;;32.90;52.82
250;BME280;109;19.806;-70.704;2023-07-09T17:22:51;101506.91;;;32.71;53.27
250;BME280;109;19.806;-70.704;2023-07-09T17:27:49;101495.97;;;32.12;54.55
250;BME280;109;19.806;-70.704;2023-07-09T17:30:16;101476.38;;;32.45;54.34
250;BME280;109;19.806;-70.704;2023-07-09T17:32:46;101473.47;;;31.99;54.47
250;BME280;109;19.806;-70.704;2023-07-09T17:35:12;101467.50;;;31.57;55.58
250;BME280;109;19.806;-70.704;2023-07-09T17:37:45;101460.44;;;31.67;55.89
250;BME280;109;19.806;-70.704;2023-07-09T17:40:22;101448.56;;;31.57;55.76
250;BME280;109;19.806;-70.704;2023-07-09T17:42:50;101457.19;;;30.99;57.43
250;BME280;109;19.806;-70.704;2023-07-09T17:45:17;101448.44;;;30.95;58.35
250;BME280;109;19.806;-70.704;2023-07-09T17:47:43;101457.88;;;31.02;57.76
250;BME280;109;19.806;-70.704;2023-07-09T17:50:19;101447.25;;;31.25;57.42
250;BME280;109;19.806;-70.704;2023-07-09T17:52:47;101445.44;;;31.13;57.18
250;BME280;109;19.806;-70.704;2023-07-09T17:55:15;101439.81;;;31.54;56.65
250;BME280;109;19.806;-70.704;2023-07-09T17:57:43;101437.03;;;31.79;56.51
250;BME280;109;19.806;-70.704;2023-07-09T18:00:30;101431.13;;;32.10;55.89
250;BME280;109;19.806;-70.704;2023-07-09T18:03:06;101424.56;;;32.13;55.85
250;BME280;109;19.806;-70.704;2023-07-09T18:05:34;101424.75;;;32.35;55.18
250;BME280;109;19.806;-70.704;2023-07-09T18:08:01;101428.84;;;32.52;55.24
250;BME280;109;19.806;-70.704;2023-07-09T18:10:38;101421.91;;;32.37;55.32
250;BME280;109;19.806;-70.704;2023-07-09T18:13:08;101431.66;;;32.51;54.70
250;BME280;109;19.806;-70.704;2023-07-09T18:15:37;101425.78;;;32.57;53.89
250;BME280;109;19.806;-70.704;2023-07-09T18:18:05;101428.72;;;32.54;54.01
250;BME280;109;19.806;-70.704;2023-07-09T18:20:32;101411.38;;;32.56;54.61
250;BME280;109;19.806;-70.704;2023-07-09T18:22:59;101420.19;;;32.36;54.31
250;BME280;109;19.806;-70.704;2023-07-09T18:25:26;101424.88;;;32.21;54.70
250;BME280;109;19.806;-70.704;2023-07-09T18:27:55;101427.72;;;31.96;55.17
250;BME280;109;19.806;-70.704;2023-07-09T18:30:25;101429.00;;;31.41;56.06
250;BME280;109;19.806;-70.704;2023-07-09T18:32:53;101426.50;;;31.38;56.38
250;BME280;109;19.806;-70.704;2023-07-09T18:35:21;101428.88;;;31.17;56.77
250;BME280;109;19.806;-70.704;2023-07-09T18:37:53;101428.53;;;30.96;57.71
250;BME280;109;19.806;-70.704;2023-07-09T18:40:23;101438.13;;;30.88;57.76
250;BME280;109;19.806;-70.704;2023-07-09T18:42:50;101450.81;;;30.48;58.23
250;BME280;109;19.806;-70.704;2023-07-09T18:45:25;101442.81;;;30.46;59.06
250;BME280;109;19.806;-70.704;2023-07-09T18:47:52;101424.47;;;30.51;58.76
250;BME280;109;19.806;-70.704;2023-07-09T18:50:27;101423.94;;;30.59;58.50
250;BME280;109;19.806;-70.704;2023-07-09T18:52:55;101426.09;;;30.27;59.53
250;BME280;109;19.806;-70.704;2023-07-09T18:55:25;101426.50;;;30.48;59.14
250;BME280;109;19.806;-70.704;2023-07-09T18:57:52;101432.38;;;30.67;58.59
250;BME280;109;19.806;-70.704;2023-07-09T19:00:20;101423.19;;;30.82;58.17
250;BME280;109;19.806;-70.704;2023-07-09T19:02:50;101432.94;;;30.85;57.47
250;BME280;109;19.806;-70.704;2023-07-09T19:05:24;101423.00;;;30.85;57.97
250;BME280;109;19.806;-70.704;2023-07-09T19:07:54;101424.91;;;30.70;58.05
250;BME280;109;19.806;-70.704;2023-07-09T19:10:23;101418.88;;;30.67;58.28
250;BME280;109;19.806;-70.704;2023-07-09T19:12:53;101415.31;;;30.66;57.26
250;BME280;109;19.806;-70.704;2023-07-09T19:15:21;101419.03;;;30.91;56.96
250;BME280;109;19.806;-70.704;2023-07-09T19:17:49;101421.97;;;31.00;56.27
250;BME280;109;19.806;-70.704;2023-07-09T19:22:44;101426.28;;;31.41;55.56
250;BME280;109;19.806;-70.704;2023-07-09T19:25:13;101416.59;;;31.62;54.95
250;BME280;109;19.806;-70.704;2023-07-09T19:27:40;101411.56;;;31.58;54.52
250;BME280;109;19.806;-70.704;2023-07-09T19:30:07;101404.16;;;31.60;54.44
250;BME280;109;19.806;-70.704;2023-07-09T19:32:33;101396.25;;;31.69;54.32
250;BME280;109;19.806;-70.704;2023-07-09T19:35:00;101396.44;;;31.79;54.25
250;BME280;109;19.806;-70.704;2023-07-09T19:37:28;101405.84;;;31.73;54.34
250;BME280;109;19.806;-70.704;2023-07-09T19:39:55;101404.81;;;31.63;54.48
250;BME280;109;19.806;-70.704;2023-07-09T19:42:23;101413.50;;;31.30;54.88
250;BME280;109;19.806;-70.704;2023-07-09T19:44:51;101400.97;;;31.42;54.04
250;BME280;109;19.806;-70.704;2023-07-09T19:47:22;101400.94;;;31.55;55.15
250;BME280;109;19.806;-70.704;2023-07-09T19:49:50;101398.31;;;31.66;54.17
250;BME280;109;19.806;-70.704;2023-07-09T19:52:18;101381.09;;;31.67;55.12
250;BME280;109;19.806;-70.704;2023-07-09T19:54:45;101378.78;;;31.37;55.46
250;BME280;109;19.806;-70.704;2023-07-09T19:57:13;101373.84;;;31.67;54.76
250;BME280;109;19.806;-70.704;2023-07-09T19:59:39;101372.13;;;31.66;54.84
250;BME280;109;19.806;-70.704;2023-07-09T20:02:22;101369.19;;;30.95;56.03
250;BME280;109;19.806;-70.704;2023-07-09T20:04:55;101367.28;;;31.33;56.11
250;BME280;109;19.806;-70.704;2023-07-09T20:07:21;101366.66;;;31.30;56.22
250;BME280;109;19.806;-70.704;2023-07-09T20:09:48;101369.16;;;31.33;56.26
250;BME280;109;19.806;-70.704;2023-07-09T20:12:23;101357.59;;;31.18;57.01
250;BME280;109;19.806;-70.704;2023-07-09T20:14:53;101362.03;;;31.19;57.10
250;BME280;109;19.806;-70.704;2023-07-09T20:17:19;101360.34;;;31.05;56.93
250;BME280;109;19.806;-70.704;2023-07-09T20:19:47;101344.28;;;31.28;57.40
250;BME280;109;19.806;-70.704;2023-07-09T20:22:24;101359.56;;;31.16;57.48
250;BME280;109;19.806;-70.704;2023-07-09T20:24:51;101352.09;;;31.20;57.55
250;BME280;109;19.806;-70.704;2023-07-09T20:27:18;101364.00;;;31.04;57.01
250;BME280;109;19.806;-70.704;2023-07-09T20:29:45;101359.34;;;30.81;58.26
250;BME280;109;19.806;-70.704;2023-07-09T20:32:17;101363.03;;;30.93;57.82
250;BME280;109;19.806;-70.704;2023-07-09T20:34:49;101347.97;;;30.76;57.68
250;BME280;109;19.806;-70.704;2023-07-09T20:37:16;101359.53;;;30.78;57.63
250;BME280;109;19.806;-70.704;2023-07-09T20:39:43;101355.13;;;30.77;57.33
250;BME280;109;19.806;-70.704;2023-07-09T20:42:11;101359.94;;;30.59;57.36
250;BME280;109;19.806;-70.704;2023-07-09T20:44:40;101364.72;;;30.68;57.26
250;BME280;109;19.806;-70.704;2023-07-09T20:47:16;101360.94;;;30.71;57.32
250;BME280;109;19.806;-70.704;2023-07-09T20:49:43;101366.56;;;30.81;57.13
250;BME280;109;19.806;-70.704;2023-07-09T20:52:10;101363.22;;;30.77;56.67
250;BME280;109;19.806;-70.704;2023-07-09T20:54:37;101366.34;;;30.84;57.12
250;BME280;109;19.806;-70.704;2023-07-09T20:57:13;101361.41;;;30.90;57.31
250;BME280;109;19.806;-70.704;2023-07-09T20:59:41;101372.41;;;30.87;56.69
250;BME280;109;19.806;-70.704;2023-07-09T21:04:44;101380.81;;;30.83;56.62
250;BME280;109;19.806;-70.704;2023-07-09T21:07:11;101378.13;;;30.70;56.77
250;BME280;109;19.806;-70.704;2023-07-09T21:09:38;101364.28;;;30.62;57.26
250;BME280;109;19.806;-70.704;2023-07-09T21:12:09;101369.97;;;30.45;57.34
250;BME280;109;19.806;-70.704;2023-07-09T21:14:36;101376.38;;;30.29;58.39
250;BME280;109;19.806;-70.704;2023-07-09T21:17:03;101376.69;;;30.12;57.64
250;BME280;109;19.806;-70.704;2023-07-09T21:19:36;101372.94;;;30.27;57.90
250;BME280;109;19.806;-70.704;2023-07-09T21:22:13;101373.34;;;30.21;57.77
250;BME280;109;19.806;-70.704;2023-07-09T21:24:50;101382.63;;;30.17;57.87
250;BME280;109;19.806;-70.704;2023-07-09T21:27:17;101374.78;;;30.27;57.87
250;BME280;109;19.806;-70.704;2023-07-09T21:29:43;101382.13;;;30.25;58.11
250;BME280;109;19.806;-70.704;2023-07-09T21:32:28;101370.06;;;30.43;57.72
250;BME280;109;19.806;-70.704;2023-07-09T21:34:58;101374.88;;;30.25;58.04
250;BME280;109;19.806;-70.704;2023-07-09T21:37:25;101381.44;;;30.21;57.89
250;BME280;109;19.806;-70.704;2023-07-09T21:39:51;101394.75;;;30.24;58.04
250;BME280;109;19.806;-70.704;2023-07-09T21:42:18;101392.59;;;30.29;58.37
250;BME280;109;19.806;-70.704;2023-07-09T21:44:44;101390.81;;;30.43;58.10
250;BME280;109;19.806;-70.704;2023-07-09T21:47:16;101400.38;;;30.61;57.49
250;BME280;109;19.806;-70.704;2023-07-09T21:49:44;101401.88;;;30.52;57.80
250;BME280;109;19.806;-70.704;2023-07-09T21:52:19;101391.84;;;30.54;58.04
250;BME280;109;19.806;-70.704;2023-07-09T21:54:47;101397.25;;;30.54;57.90
250;BME280;109;19.806;-70.704;2023-07-09T21:57:19;101398.13;;;30.55;57.78
250;BME280;109;19.806;-70.704;2023-07-09T21:59:46;101394.41;;;30.56;57.60
250;BME280;109;19.806;-70.704;2023-07-09T22:02:21;101396.81;;;30.60;58.44
250;BME280;109;19.806;-70.704;2023-07-09T22:04:50;101398.13;;;30.80;57.71
250;BME280;109;19.806;-70.704;2023-07-09T22:07:20;101403.91;;;30.49;58.08
250;BME280;109;19.806;-70.704;2023-07-09T22:09:48;101409.56;;;30.71;58.01
250;BME280;109;19.806;-70.704;2023-07-09T22:12:15;101416.25;;;30.53;58.27
250;BME280;109;19.806;-70.704;2023-07-09T22:14:53;101422.16;;;30.45;58.44
250;BME280;109;19.806;-70.704;2023-07-09T22:17:22;101424.00;;;30.45;58.75
250;BME280;109;19.806;-70.704;2023-07-09T22:19:57;101424.75;;;30.20;59.35
250;BME280;109;19.806;-70.704;2023-07-09T22:22:25;101432.88;;;30.47;58.79
250;BME280;109;19.806;-70.704;2023-07-09T22:24:53;101424.69;;;30.61;58.49
250;BME280;109;19.806;-70.704;2023-07-09T22:27:21;101439.16;;;30.60;58.85
250;BME280;109;19.806;-70.704;2023-07-09T22:29:48;101433.94;;;30.44;59.30
250;BME280;109;19.806;-70.704;2023-07-09T22:32:18;101441.88;;;30.60;58.92
250;BME280;109;19.806;-70.704;2023-07-09T22:34:46;101443.81;;;30.58;59.11
250;BME280;109;19.806;-70.704;2023-07-09T22:37:16;101441.53;;;30.52;59.38
250;BME280;109;19.806;-70.704;2023-07-09T22:39:42;101439.03;;;30.22;59.54
250;BME280;109;19.806;-70.704;2023-07-09T22:42:09;101448.00;;;30.22;59.61
250;BME280;109;19.806;-70.704;2023-07-09T22:44:36;101448.56;;;30.27;59.41